Time;durP1;ratioP1;P1;durP2;ratioP2;P2;SDS_P1;SDS_P2;PMS_P1;PMS_P2;Temp;Humidity;BMP_temperature;BMP_pressure;BME280_temperature;BME280_humidity;BME280_pressure;Samples;Min_cycle;Max_cycle;Signal;HPM_P1;HPM_P2
2022/01/28 00:01:03;;;;;;;2.80;2.60;;;17.20;40.00;;;;;;4997227;28;20185;-69
2022/01/28 00:03:33;;;;;;;2.95;2.75;;;17.20;40.00;;;;;;4997273;28;20218;-68
2022/01/28 00:06:00;;;;;;;2.90;2.65;;;17.20;40.00;;;;;;4996469;28;20209;-69
2022/01/28 00:08:27;;;;;;;3.03;2.83;;;17.20;39.90;;;;;;4997330;28;20639;-69
2022/01/28 00:10:54;;;;;;;3.35;3.05;;;17.10;39.90;;;;;;4996775;28;20679;-71
2022/01/28 00:13:29;;;;;;;2.80;2.60;;;17.10;40.00;;;;;;4997027;28;20746;-70
2022/01/28 00:19:06;;;;;;;2.75;2.55;;;17.00;40.10;;;;;;4966786;28;20275;-68
2022/01/28 00:38:26;;;;;;;2.75;2.55;;;16.90;40.40;;;;;;4996804;28;20208;-71
2022/01/28 00:40:53;;;;;;;2.70;2.50;;;16.90;40.40;;;;;;4995767;28;20197;-69
2022/01/28 00:43:20;;;;;;;2.83;2.63;;;16.80;40.50;;;;;;4994841;28;20218;-71
2022/01/28 00:45:48;;;;;;;3.08;2.50;;;16.80;41.10;;;;;;4995372;28;20204;-71
2022/01/28 00:48:15;;;;;;;2.58;2.38;;;16.80;40.60;;;;;;4996241;28;20189;-67
2022/01/28 00:50:43;;;;;;;2.50;2.30;;;16.70;40.50;;;;;;4994603;28;20284;-71
2022/01/28 00:53:10;;;;;;;3.05;2.60;;;16.70;40.50;;;;;;4996455;28;20267;-69
2022/01/28 00:55:37;;;;;;;2.72;2.53;;;16.70;40.60;;;;;;4994972;28;20576;-71
2022/01/28 00:58:05;;;;;;;2.50;2.30;;;16.70;40.60;;;;;;4994717;28;20193;-69
2022/01/28 01:00:32;;;;;;;2.50;2.30;;;16.70;40.50;;;;;;4994518;28;20284;-71
2022/01/28 01:02:59;;;;;;;2.47;2.28;;;16.70;40.60;;;;;;4995025;28;20233;-69
2022/01/28 01:05:26;;;;;;;2.58;2.30;;;16.60;41.00;;;;;;4995042;28;20596;-67
2022/01/28 01:07:55;;;;;;;2.35;2.25;;;16.60;40.60;;;;;;4994286;28;20213;-70
2022/01/28 01:10:23;;;;;;;2.80;2.60;;;16.60;40.60;;;;;;4994037;28;20550;-71
2022/01/28 01:12:50;;;;;;;2.78;2.58;;;16.60;40.60;;;;;;4994165;28;20638;-69
2022/01/28 01:15:21;;;;;;;2.22;2.13;;;16.60;40.50;;;;;;4994147;28;20197;-67
2022/01/28 01:17:57;;;;;;;2.60;2.40;;;16.60;40.50;;;;;;4993960;28;20185;-67
2022/01/28 01:23:22;;;;;;;2.60;2.40;;;16.60;40.70;;;;;;4983651;28;20701;-69
2022/01/28 01:25:54;;;;;;;2.58;2.38;;;16.60;40.60;;;;;;4993937;28;20232;-70
2022/01/28 01:28:23;;;;;;;2.50;2.30;;;16.50;40.60;;;;;;4993759;28;20201;-71
2022/01/28 01:30:50;;;;;;;2.40;2.20;;;16.50;41.20;;;;;;4993772;28;20205;-71
2022/01/28 01:33:19;;;;;;;2.15;2.05;;;16.50;40.60;;;;;;4993576;28;20221;-69
2022/01/28 01:35:46;;;;;;;2.53;2.33;;;16.50;40.80;;;;;;4993656;28;20288;-69
2022/01/28 01:38:14;;;;;;;2.60;2.40;;;16.50;41.30;;;;;;4994353;28;20653;-70
2022/01/28 01:40:46;;;;;;;2.85;2.45;;;16.50;40.60;;;;;;4994858;28;20269;-71
2022/01/28 01:43:15;;;;;;;2.25;2.05;;;16.50;40.60;;;;;;4993470;28;20243;-71
2022/01/28 01:46:00;;;;;;;2.80;2.50;;;16.40;40.50;;;;;;4993501;28;20201;-71
2022/01/28 01:53:59;;;;;;;2.50;2.30;;;16.40;41.20;;;;;;4985465;28;20217;-70
2022/01/28 01:56:28;;;;;;;2.60;2.40;;;16.40;40.70;;;;;;4993354;28;20248;-69
2022/01/28 01:58:55;;;;;;;2.67;2.47;;;16.30;40.50;;;;;;4993516;28;20198;-67
2022/01/28 02:01:22;;;;;;;2.38;2.17;;;16.30;40.60;;;;;;4993305;28;20201;-68
2022/01/28 02:03:49;;;;;;;2.38;2.20;;;16.30;40.60;;;;;;4994646;28;20319;-71
2022/01/28 02:06:18;;;;;;;2.30;2.10;;;16.30;40.60;;;;;;4992749;28;20201;-69
2022/01/28 02:08:45;;;;;;;2.30;2.20;;;16.30;40.60;;;;;;4992867;28;20212;-69
2022/01/28 02:11:12;;;;;;;2.10;2.00;;;16.30;40.70;;;;;;4992822;28;20209;-70
2022/01/28 02:13:41;;;;;;;2.67;2.47;;;16.30;40.70;;;;;;4992853;28;20252;-71
2022/01/28 02:16:09;;;;;;;2.47;2.28;;;16.30;40.80;;;;;;4992630;28;20208;-71
2022/01/28 02:18:36;;;;;;;2.10;2.00;;;16.20;40.80;;;;;;4992481;28;20228;-70
2022/01/28 02:21:07;;;;;;;2.10;2.00;;;16.20;40.90;;;;;;4992731;28;20201;-69
2022/01/28 02:23:34;;;;;;;1.90;1.80;;;16.20;40.90;;;;;;4992678;28;20256;-70
2022/01/28 02:26:02;;;;;;;2.30;2.20;;;16.20;41.00;;;;;;4992376;28;20209;-70
2022/01/28 02:28:33;;;;;;;2.72;2.53;;;16.20;41.00;;;;;;4992939;28;20252;-69
2022/01/28 02:31:01;;;;;;;2.50;2.30;;;16.20;41.00;;;;;;4992688;28;20299;-69
2022/01/28 02:33:28;;;;;;;2.70;2.50;;;16.10;40.90;;;;;;4992498;28;20231;-67
2022/01/28 02:36:02;;;;;;;2.42;2.22;;;16.10;40.90;;;;;;4992693;28;20587;-70
2022/01/28 02:38:30;;;;;;;2.28;2.10;;;16.10;41.00;;;;;;4993042;28;20640;-69
2022/01/28 02:40:59;;;;;;;2.38;2.17;;;16.10;40.90;;;;;;4993699;28;20220;-68
2022/01/28 02:43:34;;;;;;;2.08;1.98;;;16.10;41.00;;;;;;4992613;28;20217;-69
2022/01/28 02:46:06;;;;;;;2.08;1.98;;;16.10;41.00;;;;;;4992868;28;20196;-68
2022/01/28 02:48:35;;;;;;;2.22;2.10;;;16.10;41.00;;;;;;4995693;28;20205;-68
2022/01/28 02:51:08;;;;;;;2.30;2.20;;;16.00;40.90;;;;;;4992802;28;20236;-69
2022/01/28 02:53:43;;;;;;;2.22;2.05;;;16.00;40.90;;;;;;4993106;28;20638;-70
2022/01/28 02:56:16;;;;;;;2.08;1.98;;;16.00;40.80;;;;;;4993532;28;20216;-71
2022/01/28 02:58:43;;;;;;;2.13;2.03;;;16.00;40.90;;;;;;4992734;28;20193;-67
2022/01/28 03:01:12;;;;;;;2.53;2.33;;;16.00;40.80;;;;;;4992156;28;20206;-71
2022/01/28 03:03:40;;;;;;;2.47;2.28;;;16.00;40.80;;;;;;4992107;28;20216;-71
2022/01/28 03:06:07;;;;;;;2.20;2.10;;;15.90;40.80;;;;;;4992532;28;20289;-68
2022/01/28 03:08:35;;;;;;;3.03;2.60;;;15.90;40.80;;;;;;4991934;28;20217;-68
2022/01/28 03:11:41;;;;;;;2.13;1.92;;;15.90;41.50;;;;;;4992229;28;20205;-71
2022/01/28 03:14:34;;;;;;;2.22;2.08;;;15.90;40.90;;;;;;4992792;28;20300;-70
2022/01/28 03:17:15;;;;;;;2.35;2.15;;;15.90;41.00;;;;;;4992221;28;20194;-70
2022/01/28 03:19:46;;;;;;;2.20;2.10;;;15.80;41.00;;;;;;4992643;28;20217;-69
2022/01/28 03:22:14;;;;;;;2.30;2.10;;;15.80;41.10;;;;;;4993003;28;20292;-71
2022/01/28 03:24:41;;;;;;;2.17;2.08;;;15.80;41.10;;;;;;4993787;28;20208;-69
2022/01/28 03:27:19;;;;;;;2.00;1.90;;;15.80;41.20;;;;;;4991868;28;20222;-67
2022/01/28 03:29:46;;;;;;;2.40;2.20;;;15.80;41.20;;;;;;4992755;28;20204;-69
2022/01/28 03:32:13;;;;;;;2.30;2.13;;;15.80;41.20;;;;;;4993546;28;20194;-71
2022/01/28 03:34:40;;;;;;;2.97;2.17;;;15.80;41.20;;;;;;4993391;28;20209;-69
2022/01/28 03:37:09;;;;;;;2.40;2.20;;;15.80;41.20;;;;;;4992130;28;20197;-70
2022/01/28 03:39:36;;;;;;;2.10;2.00;;;15.80;41.20;;;;;;4991980;28;20202;-71
2022/01/28 03:42:05;;;;;;;2.20;2.00;;;15.70;41.10;;;;;;4991983;28;20340;-69
2022/01/28 03:44:35;;;;;;;2.03;1.92;;;15.70;41.10;;;;;;4992613;28;20217;-67
2022/01/28 03:47:02;;;;;;;2.17;2.05;;;15.70;41.10;;;;;;4992273;28;20216;-69
2022/01/28 03:49:29;;;;;;;2.40;2.20;;;15.70;41.20;;;;;;4991992;28;20198;-71
2022/01/28 03:51:56;;;;;;;2.00;1.90;;;15.70;41.20;;;;;;4992084;28;20233;-69
2022/01/28 03:54:23;;;;;;;2.00;1.90;;;15.70;41.20;;;;;;4991742;28;20267;-69
2022/01/28 03:56:50;;;;;;;2.33;2.13;;;15.70;41.20;;;;;;4993228;28;20196;-68
2022/01/28 03:59:17;;;;;;;2.45;2.25;;;15.70;41.20;;;;;;4991655;28;20293;-71
2022/01/28 04:01:48;;;;;;;2.15;2.05;;;15.60;41.20;;;;;;4993448;28;20207;-69
2022/01/28 04:12:32;;;;;;;2.30;2.10;;;15.60;41.30;;;;;;4995411;28;20631;-70
2022/01/28 04:15:07;;;;;;;2.20;2.00;;;15.60;41.50;;;;;;4995019;28;20296;-67
2022/01/28 04:17:35;;;;;;;2.88;2.55;;;15.60;42.10;;;;;;4996358;28;20271;-69
2022/01/28 04:20:02;;;;;;;2.50;2.30;;;15.60;41.30;;;;;;4995164;28;20201;-68
2022/01/28 04:22:29;;;;;;;2.60;2.40;;;15.60;41.30;;;;;;4996476;28;20248;-71
2022/01/28 04:24:56;;;;;;;2.45;2.25;;;15.60;41.40;;;;;;4995870;28;20233;-69
2022/01/28 04:27:23;;;;;;;3.03;2.50;;;15.60;41.30;;;;;;4994799;28;20248;-67
2022/01/28 04:29:51;;;;;;;2.20;2.10;;;15.70;41.40;;;;;;4994852;28;20308;-70
2022/01/28 04:32:20;;;;;;;2.63;2.42;;;15.60;41.40;;;;;;4995962;28;20190;-70
2022/01/28 04:34:48;;;;;;;2.60;2.40;;;15.60;41.30;;;;;;4995876;28;20213;-69
2022/01/28 04:37:24;;;;;;;2.70;2.50;;;15.60;41.50;;;;;;4994768;28;20642;-68
2022/01/28 04:39:56;;;;;;;2.55;2.35;;;15.60;41.20;;;;;;4994718;28;20224;-70
2022/01/28 04:42:42;;;;;;;2.50;2.30;;;15.60;41.20;;;;;;4994481;28;20193;-71
2022/01/28 04:45:16;;;;;;;2.60;2.40;;;15.60;41.10;;;;;;4994806;28;20268;-67
2022/01/28 04:47:52;;;;;;;3.03;2.70;;;15.60;41.00;;;;;;4995691;28;20208;-69
2022/01/28 04:50:30;;;;;;;2.72;2.45;;;15.70;41.00;;;;;;4994481;28;20601;-69
2022/01/28 04:56:03;;;;;;;2.50;2.30;;;15.70;40.90;;;;;;4993941;28;20283;-70
2022/01/28 04:58:46;;;;;;;3.08;2.70;;;15.70;40.90;;;;;;4995580;28;20633;-69
2022/01/28 05:01:32;;;;;;;2.72;2.53;;;15.70;40.90;;;;;;4994557;28;20559;-69
2022/01/28 05:04:12;;;;;;;2.80;2.35;;;15.80;40.90;;;;;;4994555;28;20233;-69
2022/01/28 05:07:20;;;;;;;2.28;2.08;;;15.70;40.80;;;;;;4995476;28;20193;-71
2022/01/28 05:13:08;;;;;;;2.03;1.90;;;15.80;40.90;;;;;;4956778;28;20277;-68
2022/01/28 05:24:29;;;;;;;2.42;1.95;;;15.90;40.80;;;;;;4959437;28;20233;-68
2022/01/28 05:26:59;;;;;;;2.30;2.10;;;15.90;40.80;;;;;;4993654;28;20197;-71
2022/01/28 05:29:26;;;;;;;2.40;2.00;;;15.90;40.70;;;;;;4995559;28;20284;-70
2022/01/28 05:31:53;;;;;;;2.40;2.20;;;15.90;40.70;;;;;;4993936;28;20649;-69
2022/01/28 05:34:23;;;;;;;2.40;2.20;;;15.90;41.20;;;;;;4993732;28;20227;-68
2022/01/28 05:36:50;;;;;;;2.28;2.13;;;15.90;40.50;;;;;;4993725;28;20269;-68
2022/01/28 05:39:19;;;;;;;2.72;2.50;;;15.90;40.60;;;;;;4995277;28;20186;-69
2022/01/28 05:41:46;;;;;;;2.55;2.35;;;15.90;40.60;;;;;;4993866;28;20205;-68
2022/01/28 05:44:13;;;;;;;2.63;2.40;;;16.00;41.20;;;;;;4993583;28;20221;-68
2022/01/28 05:46:40;;;;;;;2.53;2.33;;;16.00;41.00;;;;;;4993399;28;20573;-70
2022/01/28 05:49:08;;;;;;;4.22;2.33;;;16.00;41.00;;;;;;4993668;28;20221;-68
2022/01/28 05:51:35;;;;;;;2.17;2.08;;;16.00;41.10;;;;;;4993196;28;20210;-68
2022/01/28 05:54:02;;;;;;;2.78;2.50;;;16.10;41.10;;;;;;4993984;28;20228;-66
2022/01/28 05:56:31;;;;;;;2.90;2.60;;;16.10;41.10;;;;;;4994939;28;20214;-70
2022/01/28 05:58:58;;;;;;;2.22;2.10;;;16.10;41.00;;;;;;4993207;28;20225;-69
2022/01/28 06:01:25;;;;;;;3.13;2.40;;;16.10;41.00;;;;;;4993522;28;20677;-67
2022/01/28 06:03:52;;;;;;;2.60;2.40;;;16.20;41.10;;;;;;4993533;28;20627;-67
2022/01/28 06:06:20;;;;;;;2.10;2.00;;;16.20;40.60;;;;;;4993467;28;20197;-71
2022/01/28 06:08:48;;;;;;;3.03;2.28;;;16.20;40.60;;;;;;4993780;28;20638;-69
2022/01/28 06:11:15;;;;;;;2.92;2.38;;;16.20;40.70;;;;;;4994353;28;20303;-68
2022/01/28 06:13:44;;;;;;;2.33;2.17;;;16.30;40.80;;;;;;4995696;28;20205;-69
2022/01/28 06:16:12;;;;;;;2.70;2.50;;;16.30;40.50;;;;;;4994837;28;20194;-71
2022/01/28 06:18:39;;;;;;;2.75;2.22;;;16.30;40.60;;;;;;4993631;28;20204;-70
2022/01/28 06:21:06;;;;;;;2.28;2.08;;;16.30;40.60;;;;;;4993627;28;20585;-68
2022/01/28 06:23:33;;;;;;;4.53;2.30;;;16.30;40.40;;;;;;4992892;28;20271;-71
2022/01/28 06:26:01;;;;;;;2.60;2.40;;;16.30;40.40;;;;;;4994359;28;20204;-71
2022/01/28 06:28:28;;;;;;;3.05;2.00;;;16.30;40.40;;;;;;4993368;28;20224;-70
2022/01/28 06:30:56;;;;;;;2.30;2.00;;;16.30;40.40;;;;;;4993607;28;20243;-68
2022/01/28 06:33:23;;;;;;;3.08;2.13;;;16.30;40.30;;;;;;4993143;28;20256;-71
2022/01/28 06:35:50;;;;;;;2.30;2.10;;;16.30;40.40;;;;;;4993450;28;20224;-71
2022/01/28 06:38:17;;;;;;;2.30;2.10;;;16.30;40.40;;;;;;4994624;28;20185;-68
2022/01/28 06:40:45;;;;;;;2.65;2.17;;;16.30;40.30;;;;;;4994696;28;20241;-70
2022/01/28 06:43:12;;;;;;;2.88;2.60;;;16.30;40.30;;;;;;4993264;28;20275;-69
2022/01/28 06:45:42;;;;;;;2.58;2.30;;;16.20;40.20;;;;;;4994696;28;20272;-69
2022/01/28 06:48:11;;;;;;;2.55;2.35;;;16.20;40.20;;;;;;4993358;28;20259;-71
2022/01/28 06:50:38;;;;;;;2.50;2.30;;;16.30;40.20;;;;;;4993096;28;20193;-68
2022/01/28 06:53:07;;;;;;;2.70;2.20;;;16.30;40.20;;;;;;4999869;28;20205;-71
2022/01/28 06:55:35;;;;;;;2.40;2.20;;;16.30;40.00;;;;;;4994290;28;20204;-71
2022/01/28 06:58:03;;;;;;;2.33;2.13;;;16.30;40.10;;;;;;4993556;28;20689;-71
2022/01/28 07:00:34;;;;;;;2.75;2.40;;;16.30;39.90;;;;;;4994749;28;20217;-70
2022/01/28 07:03:01;;;;;;;3.30;2.90;;;16.40;39.90;;;;;;4993809;28;20619;-71
2022/01/28 07:05:30;;;;;;;2.72;2.30;;;16.40;39.80;;;;;;4994820;28;20221;-68
2022/01/28 07:07:58;;;;;;;2.17;1.98;;;16.40;39.90;;;;;;4993446;28;20217;-69
2022/01/28 07:10:25;;;;;;;2.40;2.20;;;16.40;39.90;;;;;;4993166;28;20209;-70
2022/01/28 07:12:54;;;;;;;3.72;2.30;;;16.40;39.70;;;;;;4993176;28;20304;-68
2022/01/28 07:15:24;;;;;;;2.53;2.33;;;16.40;39.60;;;;;;4993553;28;20200;-68
2022/01/28 07:17:51;;;;;;;3.75;2.42;;;16.40;39.70;;;;;;4993032;28;20202;-69
2022/01/28 07:20:19;;;;;;;2.70;2.50;;;16.40;39.70;;;;;;4992965;28;20228;-70
2022/01/28 07:22:47;;;;;;;2.58;2.38;;;16.40;39.60;;;;;;4993695;28;20656;-70
2022/01/28 07:25:14;;;;;;;2.80;2.30;;;16.40;39.50;;;;;;4995120;28;20577;-69
2022/01/28 07:27:42;;;;;;;2.17;2.00;;;16.40;39.60;;;;;;4993538;28;20201;-69
2022/01/28 07:30:10;;;;;;;2.92;2.20;;;16.40;39.50;;;;;;4994203;28;20194;-69
2022/01/28 07:32:37;;;;;;;2.78;2.25;;;16.40;39.60;;;;;;4995026;28;20194;-69
2022/01/28 07:35:05;;;;;;;2.95;2.65;;;16.40;39.40;;;;;;4992967;28;20221;-68
2022/01/28 07:37:31;;;;;;;2.72;2.40;;;16.50;39.50;;;;;;4997601;28;20193;-69
2022/01/28 07:40:02;;;;;;;3.15;2.40;;;16.50;39.30;;;;;;4997095;28;20566;-70
2022/01/28 07:42:33;;;;;;;2.50;2.30;;;16.50;39.30;;;;;;4997887;28;20181;-69
2022/01/28 07:45:00;;;;;;;2.88;2.17;;;16.50;39.20;;;;;;4996376;28;20229;-71
2022/01/28 07:47:27;;;;;;;3.20;2.65;;;16.50;39.30;;;;;;4996461;28;20635;-70
2022/01/28 07:49:55;;;;;;;3.03;2.35;;;16.60;39.30;;;;;;4996069;28;20218;-68
2022/01/28 07:52:22;;;;;;;2.85;2.45;;;16.60;39.50;;;;;;4996258;28;20207;-71
2022/01/28 07:54:50;;;;;;;3.55;2.40;;;16.60;39.20;;;;;;4996080;28;20767;-70
2022/01/28 07:57:18;;;;;;;2.58;2.15;;;16.60;39.30;;;;;;4996273;28;20208;-69
2022/01/28 07:59:45;;;;;;;3.45;2.90;;;16.60;39.20;;;;;;5010936;28;20292;-69
2022/01/28 08:02:13;;;;;;;4.28;2.90;;;16.70;39.30;;;;;;4998194;28;20201;-69
2022/01/28 08:04:40;;;;;;;3.00;2.72;;;16.60;39.20;;;;;;4999311;28;20244;-70
2022/01/28 08:07:07;;;;;;;2.65;2.45;;;16.70;39.20;;;;;;4995969;28;20206;-69
2022/01/28 08:09:34;;;;;;;2.63;2.38;;;16.70;39.10;;;;;;4995554;28;20222;-69
2022/01/28 08:12:05;;;;;;;2.45;2.25;;;16.70;39.20;;;;;;4995845;28;20209;-70
2022/01/28 08:14:33;;;;;;;2.60;2.40;;;16.70;39.10;;;;;;4995691;28;20217;-70
2022/01/28 08:17:00;;;;;;;3.05;2.45;;;16.70;39.00;;;;;;4995636;28;20212;-69
2022/01/28 08:19:27;;;;;;;2.95;2.40;;;16.80;39.10;;;;;;4996918;28;20197;-68
2022/01/28 08:21:55;;;;;;;2.53;2.33;;;16.80;39.10;;;;;;4995505;28;20312;-70
2022/01/28 08:24:22;;;;;;;2.83;2.50;;;16.80;39.70;;;;;;4995817;28;20567;-70
2022/01/28 08:26:49;;;;;;;2.58;2.35;;;16.80;38.90;;;;;;4995622;28;20201;-69
2022/01/28 08:29:16;;;;;;;2.53;2.33;;;16.80;39.10;;;;;;4995242;28;20228;-70
2022/01/28 08:31:45;;;;;;;3.03;2.42;;;16.80;38.80;;;;;;4995333;28;20205;-70
2022/01/28 08:34:12;;;;;;;2.92;2.53;;;16.80;39.00;;;;;;4996678;28;20211;-71
2022/01/28 08:36:39;;;;;;;2.72;2.50;;;16.90;39.00;;;;;;4995131;28;20223;-68
2022/01/28 08:39:08;;;;;;;3.08;2.50;;;16.90;38.80;;;;;;4996623;28;20240;-68
2022/01/28 08:41:39;;;;;;;4.05;2.72;;;16.90;39.00;;;;;;4995294;28;20202;-70
2022/01/28 08:44:05;;;;;;;3.00;2.70;;;16.90;39.10;;;;;;4995687;28;20701;-69
2022/01/28 08:46:33;;;;;;;2.70;2.40;;;16.90;38.80;;;;;;4996307;28;20189;-70
2022/01/28 08:49:03;;;;;;;3.00;2.40;;;17.00;38.90;;;;;;4995007;28;20260;-67
2022/01/28 08:51:30;;;;;;;2.97;2.55;;;17.00;38.90;;;;;;4995111;28;20203;-67
2022/01/28 08:53:58;;;;;;;3.33;2.45;;;17.00;38.90;;;;;;4996349;28;20319;-69
2022/01/28 08:56:25;;;;;;;2.95;2.33;;;17.00;38.90;;;;;;4995343;28;20202;-70
2022/01/28 08:58:52;;;;;;;2.50;2.20;;;17.00;38.90;;;;;;4996697;28;20273;-69
2022/01/28 09:01:19;;;;;;;2.33;2.10;;;17.10;38.90;;;;;;4995490;28;20649;-70
2022/01/28 09:03:46;;;;;;;3.75;2.47;;;17.10;38.70;;;;;;4995607;28;20225;-71
2022/01/28 09:06:14;;;;;;;2.58;2.38;;;17.10;38.60;;;;;;4995516;28;20201;-69
2022/01/28 09:08:43;;;;;;;3.42;2.55;;;17.10;38.60;;;;;;4994928;28;20217;-68
2022/01/28 09:11:31;;;;;;;2.40;2.20;;;17.10;38.60;;;;;;4995899;28;20194;-70
2022/01/28 09:13:59;;;;;;;2.40;2.22;;;17.10;38.60;;;;;;4994767;28;20231;-69
2022/01/28 09:16:26;;;;;;;2.47;2.28;;;17.10;38.70;;;;;;4994693;28;20221;-70
2022/01/28 09:18:52;;;;;;;2.72;2.40;;;17.10;38.50;;;;;;4994433;28;20185;-69
2022/01/28 09:21:21;;;;;;;2.88;2.28;;;17.10;38.50;;;;;;4994518;28;20205;-71
2022/01/28 09:23:48;;;;;;;2.13;1.92;;;17.20;38.50;;;;;;4996008;28;20623;-71
2022/01/28 09:26:15;;;;;;;2.97;2.28;;;17.20;38.50;;;;;;4995502;28;20204;-69
2022/01/28 09:28:42;;;;;;;2.47;2.28;;;17.20;38.30;;;;;;4994119;28;20224;-71
2022/01/28 09:31:09;;;;;;;2.90;2.30;;;17.30;38.40;;;;;;4994067;28;20229;-70
2022/01/28 09:33:37;;;;;;;2.47;2.00;;;17.30;38.20;;;;;;4995253;28;20244;-69
2022/01/28 09:36:06;;;;;;;2.33;2.13;;;17.30;38.20;;;;;;4994284;28;20272;-70
2022/01/28 09:38:34;;;;;;;2.45;2.25;;;17.40;38.40;;;;;;4993815;28;20193;-72
2022/01/28 09:41:03;;;;;;;2.17;1.98;;;17.40;38.20;;;;;;4993776;28;20668;-72
2022/01/28 09:43:30;;;;;;;2.35;2.15;;;17.40;38.20;;;;;;4993662;28;20225;-70
2022/01/28 09:45:57;;;;;;;2.75;2.38;;;17.50;38.20;;;;;;4993816;28;20203;-69
2022/01/28 09:48:24;;;;;;;2.30;2.10;;;17.50;38.10;;;;;;4993992;28;20217;-71
2022/01/28 09:50:51;;;;;;;2.22;2.03;;;17.50;37.70;;;;;;4993471;28;20205;-71
2022/01/28 09:53:19;;;;;;;2.20;2.00;;;17.60;37.80;;;;;;4993676;28;20256;-70
2022/01/28 09:55:47;;;;;;;3.20;2.28;;;17.60;37.70;;;;;;4993674;28;20229;-70
2022/01/28 09:58:15;;;;;;;2.20;1.90;;;17.60;37.60;;;;;;4993331;28;20229;-70
2022/01/28 10:00:42;;;;;;;2.17;1.90;;;17.70;37.70;;;;;;4993430;28;20198;-71
2022/01/28 10:03:10;;;;;;;4.53;2.25;;;17.70;37.60;;;;;;4993198;28;20649;-69
2022/01/28 10:05:38;;;;;;;2.13;1.90;;;17.70;37.50;;;;;;4993216;28;20220;-69
2022/01/28 10:08:08;;;;;;;2.63;1.98;;;17.70;37.30;;;;;;4993264;28;20296;-72
2022/01/28 10:11:05;;;;;;;3.13;1.98;;;17.80;37.40;;;;;;4993279;28;20251;-72
2022/01/28 10:13:40;;;;;;;2.85;1.80;;;17.90;37.20;;;;;;4960005;28;20221;-70
2022/01/28 10:16:12;;;;;;;2.03;1.75;;;17.90;37.00;;;;;;4993303;28;20200;-70
2022/01/28 10:18:57;;;;;;;2.38;1.90;;;18.00;37.30;;;;;;4993120;28;20289;-71
2022/01/28 10:21:27;;;;;;;3.22;2.05;;;18.00;37.00;;;;;;4994597;28;20189;-70
2022/01/28 10:24:14;;;;;;;2.25;1.77;;;18.00;36.70;;;;;;4994062;28;20240;-71
2022/01/28 10:26:45;;;;;;;1.77;1.63;;;18.10;36.90;;;;;;4994033;28;20182;-69
2022/01/28 10:29:14;;;;;;;3.40;1.70;;;18.10;36.80;;;;;;4992973;28;20209;-70
2022/01/28 10:31:43;;;;;;;2.33;1.60;;;18.10;36.80;;;;;;4994370;28;20672;-71
2022/01/28 10:34:15;;;;;;;2.08;1.70;;;18.20;37.30;;;;;;4992898;28;20248;-71
2022/01/28 10:36:43;;;;;;;2.17;1.75;;;18.20;36.60;;;;;;4992714;28;20324;-70
2022/01/28 10:39:20;;;;;;;2.97;2.00;;;18.20;36.40;;;;;;4994024;28;20190;-70
2022/01/28 10:42:07;;;;;;;1.90;1.67;;;18.30;36.40;;;;;;4992892;28;20654;-70
2022/01/28 10:44:34;;;;;;;1.70;1.60;;;18.30;36.50;;;;;;4993132;28;20221;-71
2022/01/28 10:47:03;;;;;;;2.75;1.70;;;18.40;36.30;;;;;;4994057;28;20708;-72
2022/01/28 10:49:31;;;;;;;2.00;1.67;;;18.40;36.00;;;;;;4992522;28;20213;-70
2022/01/28 10:52:11;;;;;;;1.92;1.80;;;18.40;36.10;;;;;;4994065;28;20213;-69
2022/01/28 10:54:38;;;;;;;3.15;1.70;;;18.40;36.70;;;;;;4992760;28;20303;-69
2022/01/28 10:57:09;;;;;;;1.70;1.60;;;18.50;35.90;;;;;;4994172;28;20201;-71
2022/01/28 10:59:37;;;;;;;2.00;1.77;;;18.50;35.50;;;;;;4994002;28;20178;-71
2022/01/28 11:02:05;;;;;;;2.08;1.67;;;18.50;35.90;;;;;;4993970;28;20186;-70
2022/01/28 11:04:33;;;;;;;2.33;1.70;;;18.50;36.00;;;;;;4992785;28;20224;-68
2022/01/28 11:07:01;;;;;;;2.30;1.70;;;18.60;35.70;;;;;;4993002;28;20240;-70
2022/01/28 11:09:29;;;;;;;2.85;1.63;;;18.60;35.80;;;;;;4996146;28;20638;-71
2022/01/28 11:11:56;;;;;;;2.38;1.90;;;18.60;35.60;;;;;;4997546;28;20259;-69
2022/01/28 11:14:25;;;;;;;3.10;1.80;;;18.60;35.60;;;;;;4998768;28;20332;-69
2022/01/28 11:16:52;;;;;;;1.58;1.48;;;18.60;35.60;;;;;;4999889;28;20185;-70
2022/01/28 11:19:20;;;;;;;2.70;1.70;;;18.70;35.70;;;;;;5000636;28;20201;-72
2022/01/28 11:21:55;;;;;;;2.53;1.67;;;18.70;35.70;;;;;;4998936;28;20189;-71
2022/01/28 11:24:30;;;;;;;2.50;1.73;;;18.70;35.70;;;;;;4996520;28;20611;-70
2022/01/28 11:27:01;;;;;;;2.85;1.73;;;18.60;35.50;;;;;;4997811;28;20181;-71
2022/01/28 11:29:30;;;;;;;3.25;1.80;;;18.60;35.60;;;;;;4996819;28;20225;-70
2022/01/28 11:31:58;;;;;;;2.92;1.63;;;18.70;35.50;;;;;;4996787;28;20202;-69
2022/01/28 11:34:25;;;;;;;1.73;1.60;;;18.60;36.00;;;;;;4996353;28;20271;-68
2022/01/28 11:36:55;;;;;;;1.75;1.65;;;18.60;35.50;;;;;;4995929;28;20197;-71
2022/01/28 11:39:28;;;;;;;2.88;1.60;;;18.60;35.40;;;;;;4997941;28;20186;-72
2022/01/28 11:42:11;;;;;;;3.55;1.92;;;18.60;35.50;;;;;;4997730;28;20357;-71
2022/01/28 11:44:52;;;;;;;2.08;1.52;;;18.70;35.70;;;;;;4997160;28;20228;-71
2022/01/28 11:47:24;;;;;;;3.03;1.80;;;18.70;35.60;;;;;;4996579;28;20198;-72
2022/01/28 11:49:59;;;;;;;2.25;1.70;;;18.70;35.70;;;;;;4997585;28;20209;-69
2022/01/28 11:52:29;;;;;;;2.38;1.70;;;18.70;35.60;;;;;;4997479;28;20187;-67
2022/01/28 11:54:56;;;;;;;1.60;1.50;;;18.70;36.20;;;;;;4996299;28;20275;-69
2022/01/28 11:57:26;;;;;;;2.38;1.77;;;18.70;35.50;;;;;;4996391;28;20193;-70
2022/01/28 12:00:09;;;;;;;2.78;2.00;;;18.70;35.40;;;;;;4996234;28;20204;-72
2022/01/28 12:02:46;;;;;;;2.30;1.70;;;18.70;35.90;;;;;;4997257;28;20335;-69
2022/01/28 12:05:25;;;;;;;1.55;1.30;;;18.70;35.30;;;;;;4996383;28;20216;-71
2022/01/28 12:07:54;;;;;;;2.55;1.60;;;18.70;35.30;;;;;;4996604;28;20664;-68
2022/01/28 12:10:22;;;;;;;2.38;1.58;;;18.70;35.10;;;;;;4997307;28;20213;-72
2022/01/28 12:12:58;;;;;;;3.20;1.63;;;18.80;35.20;;;;;;4995728;28;20626;-72
2022/01/28 12:15:28;;;;;;;2.35;1.63;;;18.70;35.30;;;;;;4995789;28;20213;-70
2022/01/28 12:18:09;;;;;;;1.75;1.60;;;18.80;35.10;;;;;;4995763;28;20198;-69
2022/01/28 12:20:43;;;;;;;2.15;1.40;;;18.80;35.10;;;;;;4995768;28;20190;-67
2022/01/28 12:23:38;;;;;;;2.38;1.55;;;18.70;35.00;;;;;;4996248;28;20220;-71
2022/01/28 12:26:04;;;;;;;3.67;1.92;;;18.80;35.20;;;;;;4996556;28;20205;-69
2022/01/28 12:28:46;;;;;;;2.78;1.67;;;18.80;35.00;;;;;;4996538;28;20284;-68
2022/01/28 12:31:18;;;;;;;1.83;1.50;;;18.70;35.10;;;;;;4995168;28;20213;-69
2022/01/28 12:33:46;;;;;;;2.63;1.85;;;18.80;35.30;;;;;;4995161;28;20225;-71
2022/01/28 12:36:14;;;;;;;1.73;1.63;;;18.80;35.40;;;;;;4995398;28;20204;-71
2022/01/28 12:38:44;;;;;;;2.28;1.60;;;18.80;35.50;;;;;;4996437;28;20200;-69
2022/01/28 12:41:13;;;;;;;2.78;1.70;;;18.80;35.40;;;;;;4995186;28;20193;-69
2022/01/28 12:43:39;;;;;;;2.25;1.50;;;18.80;35.50;;;;;;4994607;28;20260;-71
2022/01/28 12:46:07;;;;;;;2.60;1.98;;;18.80;35.70;;;;;;4995116;28;20291;-69
2022/01/28 12:48:36;;;;;;;2.47;1.60;;;18.80;35.30;;;;;;4995294;28;20208;-71
2022/01/28 12:51:04;;;;;;;2.38;1.77;;;18.80;35.30;;;;;;4994935;28;20222;-68
2022/01/28 12:53:32;;;;;;;2.35;1.63;;;18.90;35.20;;;;;;4994954;28;20223;-71
2022/01/28 12:56:00;;;;;;;2.67;1.75;;;18.80;35.10;;;;;;4996116;28;20288;-69
2022/01/28 12:58:34;;;;;;;1.75;1.55;;;18.80;35.30;;;;;;4995022;28;20208;-68
2022/01/28 13:01:09;;;;;;;2.92;1.83;;;18.90;35.40;;;;;;4994740;28;20672;-71
2022/01/28 13:03:45;;;;;;;1.95;1.70;;;18.90;35.50;;;;;;4995919;28;20209;-71
2022/01/28 13:06:39;;;;;;;2.53;1.80;;;18.90;35.30;;;;;;4994589;28;20272;-71
2022/01/28 13:09:11;;;;;;;3.08;1.92;;;18.90;35.40;;;;;;4994507;28;20211;-71
2022/01/28 13:11:41;;;;;;;1.88;1.70;;;18.90;35.90;;;;;;4994529;28;20265;-69
2022/01/28 13:14:09;;;;;;;2.60;1.90;;;18.90;35.40;;;;;;4995631;28;20217;-69
2022/01/28 13:16:37;;;;;;;2.25;1.85;;;18.90;35.50;;;;;;4995598;28;20194;-67
2022/01/28 13:19:06;;;;;;;2.03;1.83;;;18.90;35.50;;;;;;4995822;28;20212;-71
2022/01/28 13:21:33;;;;;;;2.30;2.05;;;18.90;35.50;;;;;;4994330;28;20190;-71
2022/01/28 13:24:08;;;;;;;2.03;1.83;;;18.90;35.50;;;;;;4978337;28;20228;-69
2022/01/28 13:26:36;;;;;;;1.85;1.70;;;18.90;35.60;;;;;;4994734;28;20201;-69
2022/01/28 13:29:08;;;;;;;2.55;1.90;;;18.90;35.50;;;;;;4997879;28;20681;-71
2022/01/28 13:31:35;;;;;;;3.40;2.00;;;18.90;35.60;;;;;;4996082;28;20249;-70
2022/01/28 13:34:06;;;;;;;1.90;1.70;;;18.90;35.50;;;;;;4995817;28;20297;-71
2022/01/28 13:36:47;;;;;;;2.53;1.90;;;18.90;35.40;;;;;;4997786;28;20268;-71
2022/01/28 13:39:15;;;;;;;2.20;1.70;;;18.90;35.50;;;;;;4996818;28;20205;-71
2022/01/28 13:41:42;;;;;;;3.33;2.20;;;18.90;35.60;;;;;;4994152;28;20209;-69
2022/01/28 13:44:23;;;;;;;2.75;2.08;;;18.80;35.40;;;;;;4993706;28;20237;-68
2022/01/28 13:46:58;;;;;;;2.47;1.95;;;18.80;35.50;;;;;;4995000;28;20645;-71
2022/01/28 13:49:31;;;;;;;2.70;2.40;;;18.90;35.70;;;;;;4993773;28;20205;-67
2022/01/28 13:52:14;;;;;;;2.50;2.30;;;18.80;35.70;;;;;;4993780;28;20218;-69
2022/01/28 13:54:41;;;;;;;2.95;1.92;;;18.80;35.70;;;;;;4993942;28;20631;-71